createdAt,value
2018-12-21T00:00:21.826Z,1003.69
2018-12-21T00:01:21.802Z,1003.64
2018-12-21T00:02:21.778Z,1003.62
2018-12-21T00:03:21.754Z,1003.57
2018-12-21T00:04:21.729Z,1003.51
2018-12-21T00:05:21.708Z,1003.45
2018-12-21T00:06:21.685Z,1003.51
2018-12-21T00:07:21.657Z,1003.50
2018-12-21T00:08:21.635Z,1003.44
2018-12-21T00:09:21.709Z,1003.42
2018-12-21T00:10:21.585Z,1003.42
2018-12-21T00:11:21.566Z,1003.40
2018-12-21T00:12:21.536Z,1003.40
2018-12-21T00:13:21.512Z,1003.33
2018-12-21T00:14:21.488Z,1003.32
2018-12-21T00:15:21.463Z,1003.36
2018-12-21T00:16:21.440Z,1003.36
2018-12-21T00:17:21.417Z,1003.34
2018-12-21T00:18:21.393Z,1003.30
2018-12-21T00:19:21.369Z,1003.34
2018-12-21T00:20:21.344Z,1003.38
2018-12-21T00:21:21.911Z,1003.39
2018-12-21T00:22:21.295Z,1003.35
2018-12-21T00:23:21.270Z,1003.29
2018-12-21T00:24:21.248Z,1003.28
2018-12-21T00:25:21.224Z,1003.29
2018-12-21T00:26:21.199Z,1003.28
2018-12-21T00:27:21.174Z,1003.28
2018-12-21T00:28:21.149Z,1003.23
2018-12-21T00:29:21.125Z,1003.23
2018-12-21T00:30:21.101Z,1003.23
2018-12-21T00:31:21.077Z,1003.28
2018-12-21T00:32:21.055Z,1003.28
2018-12-21T00:33:21.030Z,1003.23
2018-12-21T00:34:21.005Z,1003.22
2018-12-21T00:35:20.980Z,1003.20
2018-12-21T00:36:20.957Z,1003.17
2018-12-21T00:37:20.933Z,1003.22
2018-12-21T00:38:20.908Z,1003.21
2018-12-21T00:39:20.884Z,1003.19
2018-12-21T00:40:20.859Z,1003.15
2018-12-21T00:41:20.836Z,1003.19
2018-12-21T00:42:20.810Z,1003.17
2018-12-21T00:43:20.786Z,1003.16
2018-12-21T00:44:20.763Z,1003.15
2018-12-21T00:45:20.738Z,1003.13
2018-12-21T00:46:20.715Z,1003.05
2018-12-21T00:47:20.689Z,1003.10
2018-12-21T00:50:23.562Z,1003.17
2018-12-21T00:51:04.334Z,1003.18
2018-12-21T00:52:04.309Z,1003.19
2018-12-21T00:53:04.284Z,1003.15
2018-12-21T00:54:04.261Z,1003.20
2018-12-21T00:55:04.236Z,1003.15
2018-12-21T00:56:04.214Z,1003.07
2018-12-21T00:57:04.189Z,1003.08
2018-12-21T00:58:04.163Z,1003.06
2018-12-21T00:59:04.139Z,1003.07
2018-12-21T01:00:04.116Z,1003.05
2018-12-21T01:01:04.090Z,1003.10
2018-12-21T01:02:04.068Z,1003.18
2018-12-21T01:03:04.044Z,1003.12
2018-12-21T01:04:04.022Z,1003.10
2018-12-21T01:05:03.994Z,1003.09
2018-12-21T01:06:03.974Z,1003.05
2018-12-21T01:07:03.948Z,1003.02
2018-12-21T01:08:03.923Z,1003.06
2018-12-21T01:09:03.898Z,1003.09
2018-12-21T01:10:03.873Z,1003.15
2018-12-21T01:11:03.849Z,1003.08
2018-12-21T01:12:03.826Z,1003.12
2018-12-21T01:13:03.803Z,1003.06
2018-12-21T01:14:03.776Z,1003.08
2018-12-21T01:15:03.753Z,1003.12
2018-12-21T01:16:03.730Z,1003.24
2018-12-21T01:17:03.704Z,1003.15
2018-12-21T01:18:03.679Z,1003.12
2018-12-21T01:19:03.656Z,1003.13
2018-12-21T01:20:03.633Z,1003.12
2018-12-21T01:21:03.610Z,1003.08
2018-12-21T01:22:03.584Z,1003.07
2018-12-21T01:23:03.561Z,1003.11
2018-12-21T01:24:03.535Z,1003.10
2018-12-21T01:25:03.511Z,1003.09
2018-12-21T01:26:03.488Z,1003.06
2018-12-21T01:27:03.463Z,1003.04
2018-12-21T01:28:03.440Z,1003.02
2018-12-21T01:29:03.416Z,1003.04
2018-12-21T01:30:03.393Z,1003.03
2018-12-21T01:31:03.368Z,1003.11
2018-12-21T01:32:03.344Z,1003.04
2018-12-21T01:33:03.319Z,1003.08
2018-12-21T01:34:03.294Z,1003.11
2018-12-21T01:35:03.271Z,1003.02
2018-12-21T01:36:03.249Z,1003.03
2018-12-21T01:37:03.223Z,1002.94
2018-12-21T01:38:03.199Z,1003.02
2018-12-21T01:39:03.175Z,1003.05
2018-12-21T01:40:03.152Z,1003.09
2018-12-21T01:41:03.127Z,1003.06
2018-12-21T01:42:03.104Z,1003.06
2018-12-21T01:43:03.080Z,1003.11
2018-12-21T01:44:03.057Z,1003.15
2018-12-21T01:45:03.031Z,1003.13
2018-12-21T01:46:03.010Z,1003.15
2018-12-21T01:47:02.985Z,1003.08
2018-12-21T01:48:02.960Z,1003.09
2018-12-21T01:49:02.936Z,1003.05
2018-12-21T01:50:02.912Z,1003.01
2018-12-21T01:51:02.888Z,1003.01
2018-12-21T01:52:02.865Z,1003.02
2018-12-21T01:53:02.840Z,1003.11
2018-12-21T01:54:02.817Z,1003.15
2018-12-21T01:55:02.792Z,1003.07
2018-12-21T01:56:02.769Z,1003.05
2018-12-21T01:57:02.743Z,1002.99
2018-12-21T01:58:02.720Z,1002.91
2018-12-21T01:59:02.696Z,1002.99
2018-12-21T02:00:02.673Z,1002.98
2018-12-21T02:01:02.648Z,1003.03
2018-12-21T02:02:02.624Z,1002.90
2018-12-21T02:03:02.601Z,1002.95
2018-12-21T02:04:02.576Z,1002.99
2018-12-21T02:05:02.553Z,1002.95
2018-12-21T02:06:02.529Z,1002.99
2018-12-21T02:07:02.508Z,1002.94
2018-12-21T02:08:02.481Z,1002.95
2018-12-21T02:09:02.456Z,1002.94
2018-12-21T02:10:02.433Z,1002.91
2018-12-21T02:11:02.409Z,1002.95
2018-12-21T02:12:02.384Z,1002.90
2018-12-21T02:13:02.361Z,1002.88
2018-12-21T02:14:02.337Z,1002.92
2018-12-21T02:15:02.313Z,1002.93
2018-12-21T02:16:02.290Z,1002.89
2018-12-21T02:17:02.266Z,1002.90
2018-12-21T02:18:02.240Z,1002.89
2018-12-21T02:19:02.217Z,1002.88
2018-12-21T02:20:02.193Z,1002.87
2018-12-21T02:21:02.169Z,1002.83
2018-12-21T02:22:02.144Z,1002.87
2018-12-21T02:23:02.121Z,1002.82
2018-12-21T02:24:02.098Z,1002.79
2018-12-21T02:25:02.086Z,1002.80
2018-12-21T02:26:02.047Z,1002.81
2018-12-21T02:27:02.024Z,1002.75
2018-12-21T02:28:02.000Z,1002.77
2018-12-21T02:29:01.977Z,1002.70
2018-12-21T02:30:01.953Z,1002.77
2018-12-21T02:31:01.929Z,1002.72
2018-12-21T02:32:01.905Z,1002.72
2018-12-21T02:33:01.879Z,1002.74
2018-12-21T02:34:01.856Z,1002.86
2018-12-21T02:35:01.841Z,1002.84
2018-12-21T02:36:01.808Z,1002.72
2018-12-21T02:37:01.784Z,1002.79
2018-12-21T02:38:01.761Z,1002.81
2018-12-21T02:39:01.736Z,1002.79
2018-12-21T02:40:01.713Z,1002.76
2018-12-21T02:41:01.687Z,1002.78
2018-12-21T02:42:01.663Z,1002.82
2018-12-21T02:43:01.640Z,1002.72
2018-12-21T02:44:01.618Z,1002.76
2018-12-21T02:45:01.593Z,1002.75
2018-12-21T02:46:01.567Z,1002.76
2018-12-21T02:47:01.543Z,1002.77
2018-12-21T02:48:01.519Z,1002.80
2018-12-21T02:49:01.495Z,1002.75
2018-12-21T02:50:01.535Z,1002.78
2018-12-21T02:51:01.447Z,1002.74
2018-12-21T02:52:05.726Z,1002.81
2018-12-21T02:53:01.400Z,1002.79
2018-12-21T02:54:01.373Z,1002.75
2018-12-21T02:55:01.372Z,1002.78
2018-12-21T02:56:01.329Z,1002.72
2018-12-21T02:57:01.302Z,1002.71
2018-12-21T02:58:01.291Z,1002.74
2018-12-21T02:59:01.255Z,1002.72
2018-12-21T03:00:01.234Z,1002.72
2018-12-21T03:01:01.207Z,1002.69
2018-12-21T03:02:01.183Z,1002.66
2018-12-21T03:03:01.159Z,1002.65
2018-12-21T03:04:01.137Z,1002.64
2018-12-21T03:05:01.110Z,1002.67
2018-12-21T03:06:01.085Z,1002.64
2018-12-21T03:07:01.062Z,1002.65
2018-12-21T03:08:01.038Z,1002.67
2018-12-21T03:09:01.015Z,1002.60
2018-12-21T03:10:00.994Z,1002.66
2018-12-21T03:11:00.968Z,1002.59
2018-12-21T03:12:00.942Z,1002.61
2018-12-21T03:13:00.920Z,1002.63
2018-12-21T03:14:00.894Z,1002.60
2018-12-21T03:15:00.871Z,1002.58
2018-12-21T03:16:00.846Z,1002.57
2018-12-21T03:17:00.829Z,1002.56
2018-12-21T03:18:00.803Z,1002.58
2018-12-21T03:19:00.776Z,1002.58
2018-12-21T03:20:00.753Z,1002.56
2018-12-21T03:21:00.726Z,1002.53
2018-12-21T03:22:00.702Z,1002.47
2018-12-21T03:23:00.679Z,1002.52
2018-12-21T03:24:00.655Z,1002.50
2018-12-21T03:25:00.631Z,1002.52
2018-12-21T03:26:00.607Z,1002.53
2018-12-21T03:27:00.583Z,1002.51
2018-12-21T03:28:00.559Z,1002.50
2018-12-21T03:29:00.534Z,1002.44
2018-12-21T03:30:00.510Z,1002.47
2018-12-21T03:31:00.488Z,1002.45
2018-12-21T03:32:00.463Z,1002.44
2018-12-21T03:33:00.460Z,1002.41
2018-12-21T03:34:00.417Z,1002.40
2018-12-21T03:35:00.392Z,1002.36
2018-12-21T03:36:00.370Z,1002.37
2018-12-21T03:37:00.342Z,1002.31
2018-12-21T03:38:00.317Z,1002.36
2018-12-21T03:39:00.295Z,1002.32
2018-12-21T03:40:00.273Z,1002.34
2018-12-21T03:41:00.246Z,1002.35
2018-12-21T03:42:00.238Z,1002.39
2018-12-21T03:43:00.198Z,1002.38
2018-12-21T03:44:00.174Z,1002.29
2018-12-21T03:45:00.149Z,1002.27
2018-12-21T03:46:00.126Z,1002.26
2018-12-21T03:47:00.101Z,1002.25
2018-12-21T03:48:00.079Z,1002.23
2018-12-21T03:49:00.052Z,1002.25
2018-12-21T03:50:00.029Z,1002.18
2018-12-21T03:51:00.005Z,1002.17
2018-12-21T03:51:59.981Z,1002.21
2018-12-21T03:52:59.955Z,1002.20
2018-12-21T03:53:59.932Z,1002.18
2018-12-21T03:54:59.908Z,1002.16
2018-12-21T03:55:59.885Z,1002.17
2018-12-21T03:56:59.857Z,1002.13
2018-12-21T03:57:59.835Z,1002.14
2018-12-21T03:58:59.812Z,1002.13
2018-12-21T03:59:59.788Z,1002.12
2018-12-21T04:00:59.762Z,1002.11
2018-12-21T04:01:59.737Z,1002.09
2018-12-21T04:02:59.716Z,1002.02
2018-12-21T04:03:59.769Z,1002.02
2018-12-21T04:04:59.665Z,1002.03
2018-12-21T04:05:59.640Z,1002.00
2018-12-21T04:06:59.617Z,1001.97
2018-12-21T04:07:59.594Z,1001.94
2018-12-21T04:08:59.580Z,1001.91
2018-12-21T04:09:59.543Z,1001.88
2018-12-21T04:10:59.520Z,1001.91
2018-12-21T04:11:59.496Z,1001.86
2018-12-21T04:12:59.469Z,1001.84
2018-12-21T04:13:59.451Z,1001.82
2018-12-21T04:14:59.457Z,1001.80
2018-12-21T04:15:59.397Z,1001.81
2018-12-21T04:16:59.372Z,1001.80
2018-12-21T04:17:59.348Z,1001.82
2018-12-21T04:18:59.325Z,1001.78
2018-12-21T04:19:59.299Z,1001.76
2018-12-21T04:20:59.275Z,1001.75
2018-12-21T04:21:59.249Z,1001.72
2018-12-21T04:22:59.226Z,1001.69
2018-12-21T04:23:59.201Z,1001.74
2018-12-21T04:24:59.175Z,1001.72
2018-12-21T04:25:59.153Z,1001.71
2018-12-21T04:26:59.129Z,1001.70
2018-12-21T04:27:59.104Z,1001.67
2018-12-21T04:28:59.078Z,1001.71
2018-12-21T04:29:59.054Z,1001.69
2018-12-21T04:30:59.029Z,1001.63
2018-12-21T04:31:59.006Z,1001.67
2018-12-21T04:32:58.980Z,1001.61
2018-12-21T04:33:58.955Z,1001.60
2018-12-21T04:34:58.930Z,1001.59
2018-12-21T04:35:58.906Z,1001.62
2018-12-21T04:36:58.882Z,1001.57
2018-12-21T04:37:58.858Z,1001.53
2018-12-21T04:38:58.832Z,1001.54
2018-12-21T04:39:58.808Z,1001.48
2018-12-21T04:40:58.789Z,1001.50
2018-12-21T04:41:58.759Z,1001.48
2018-12-21T04:42:58.736Z,1001.47
2018-12-21T04:43:58.709Z,1001.45
2018-12-21T04:44:58.683Z,1001.45
2018-12-21T04:45:58.662Z,1001.46
2018-12-21T04:46:58.635Z,1001.43
2018-12-21T04:47:58.611Z,1001.40
2018-12-21T04:48:58.586Z,1001.43
2018-12-21T04:49:58.561Z,1001.43
2018-12-21T04:50:58.537Z,1001.43
2018-12-21T04:51:58.513Z,1001.37
2018-12-21T04:52:58.486Z,1001.36
2018-12-21T04:53:58.463Z,1001.35
2018-12-21T04:54:58.441Z,1001.32
2018-12-21T04:55:58.416Z,1001.33
2018-12-21T04:56:58.391Z,1001.28
2018-12-21T04:57:58.364Z,1001.33
2018-12-21T04:58:58.340Z,1001.32
2018-12-21T04:59:58.316Z,1001.36
2018-12-21T05:00:58.294Z,1001.33
2018-12-21T05:01:58.267Z,1001.34
2018-12-21T05:02:58.242Z,1001.30
2018-12-21T05:03:58.217Z,1001.31
2018-12-21T05:04:58.192Z,1001.27
2018-12-21T05:05:58.169Z,1001.24
2018-12-21T05:06:58.143Z,1001.21
2018-12-21T05:07:58.132Z,1001.19
2018-12-21T05:08:58.101Z,1001.14
2018-12-21T05:09:58.071Z,1001.10
2018-12-21T05:10:58.050Z,1001.12
2018-12-21T05:11:58.027Z,1001.06
2018-12-21T05:12:57.997Z,1000.99
2018-12-21T05:13:57.973Z,1000.98
2018-12-21T05:14:57.948Z,1000.97
2018-12-21T05:15:57.924Z,1001.02
2018-12-21T05:16:57.897Z,1001.05
2018-12-21T05:17:57.881Z,1000.96
2018-12-21T05:18:57.850Z,1000.98
2018-12-21T05:19:57.827Z,1000.94
2018-12-21T05:20:57.802Z,1000.90
2018-12-21T05:21:57.790Z,1000.89
2018-12-21T05:22:57.753Z,1000.88
2018-12-21T05:23:57.727Z,1000.85
2018-12-21T05:24:57.730Z,1000.85
2018-12-21T05:25:57.678Z,1000.84
2018-12-21T05:26:57.656Z,1000.84
2018-12-21T05:27:57.630Z,1000.82
2018-12-21T05:28:57.606Z,1000.84
2018-12-21T05:29:57.580Z,1000.80
2018-12-21T05:30:57.556Z,1000.81
2018-12-21T05:31:57.532Z,1000.78
2018-12-21T05:32:57.508Z,1000.71
2018-12-21T05:33:57.483Z,1000.79
2018-12-21T05:34:57.460Z,1000.73
2018-12-21T05:35:57.433Z,1000.75
2018-12-21T05:36:57.407Z,1000.72
2018-12-21T05:37:57.383Z,1000.77
2018-12-21T05:38:57.360Z,1000.69
2018-12-21T05:39:57.336Z,1000.68
2018-12-21T05:40:57.310Z,1000.75
2018-12-21T05:41:57.287Z,1000.72
2018-12-21T05:42:57.263Z,1000.69
2018-12-21T05:43:57.237Z,1000.63
2018-12-21T05:44:57.215Z,1000.64
2018-12-21T05:45:57.192Z,1000.64
2018-12-21T05:46:57.165Z,1000.54
2018-12-21T05:47:57.141Z,1000.44
2018-12-21T05:48:57.124Z,1000.42
2018-12-21T05:49:57.095Z,1000.37
2018-12-21T05:50:57.069Z,1000.42
2018-12-21T05:51:57.041Z,1000.48
2018-12-21T05:53:00.774Z,1000.43
2018-12-21T05:53:56.993Z,1000.40
2018-12-21T05:54:56.968Z,1000.35
2018-12-21T05:55:56.945Z,1000.29
2018-12-21T05:56:56.919Z,1000.30
2018-12-21T05:57:56.896Z,1000.27
2018-12-21T05:58:56.871Z,1000.30
2018-12-21T05:59:56.848Z,1000.26
2018-12-21T06:00:56.821Z,1000.30
2018-12-21T06:01:56.799Z,1000.31
2018-12-21T06:02:56.773Z,1000.28
2018-12-21T06:03:56.749Z,1000.33
2018-12-21T06:04:56.724Z,1000.27
2018-12-21T06:05:56.700Z,1000.23
2018-12-21T06:06:56.678Z,1000.24
2018-12-21T06:07:56.652Z,1000.24
2018-12-21T06:08:56.626Z,1000.22
2018-12-21T06:09:56.622Z,1000.23
2018-12-21T06:10:56.579Z,1000.15
2018-12-21T06:11:56.554Z,1000.14
2018-12-21T06:12:56.529Z,1000.12
2018-12-21T06:13:56.504Z,1000.13
2018-12-21T06:14:56.481Z,1000.09
2018-12-21T06:15:56.457Z,1000.09
2018-12-21T06:16:56.432Z,1000.09
2018-12-21T06:17:56.407Z,1000.03
2018-12-21T06:18:56.384Z,1000.02
2018-12-21T06:19:56.359Z,1000.04
2018-12-21T06:20:56.376Z,999.96
2018-12-21T06:21:56.311Z,999.91
2018-12-21T06:22:56.285Z,999.96
2018-12-21T06:23:56.263Z,999.91
2018-12-21T06:24:56.241Z,999.85
2018-12-21T06:25:56.212Z,999.82
2018-12-21T06:26:56.190Z,999.81
2018-12-21T06:27:56.168Z,999.77
2018-12-21T06:28:56.140Z,999.78
2018-12-21T06:29:56.116Z,999.76
2018-12-21T06:30:56.092Z,999.72
2018-12-21T06:31:56.067Z,999.75
2018-12-21T06:32:56.042Z,999.73
2018-12-21T06:33:56.019Z,999.72
2018-12-21T06:34:55.997Z,999.72
2018-12-21T06:35:55.970Z,999.74
2018-12-21T06:36:55.945Z,999.68
2018-12-21T06:37:55.921Z,999.71
2018-12-21T06:38:55.897Z,999.72
2018-12-21T06:39:55.874Z,999.68
2018-12-21T06:40:55.848Z,999.72
2018-12-21T06:41:55.824Z,999.69
2018-12-21T06:42:55.800Z,999.72
2018-12-21T06:43:55.776Z,999.71
2018-12-21T06:44:55.751Z,999.66
2018-12-21T06:45:55.731Z,999.69
2018-12-21T06:46:55.703Z,999.63
2018-12-21T06:47:55.680Z,999.66
2018-12-21T06:48:55.654Z,999.62
2018-12-21T06:49:55.630Z,999.61
2018-12-21T06:50:55.607Z,999.57
2018-12-21T06:51:55.583Z,999.56
2018-12-21T06:52:55.557Z,999.51
2018-12-21T06:53:55.537Z,999.50
2018-12-21T06:54:55.509Z,999.52
2018-12-21T06:55:55.485Z,999.46
2018-12-21T06:56:55.460Z,999.47
2018-12-21T06:57:55.437Z,999.46
2018-12-21T06:58:55.413Z,999.40
2018-12-21T06:59:55.389Z,999.40
2018-12-21T07:00:55.364Z,999.37
2018-12-21T07:01:55.340Z,999.42
2018-12-21T07:02:55.317Z,999.40
2018-12-21T07:03:55.292Z,999.39
2018-12-21T07:04:55.266Z,999.39
2018-12-21T07:05:55.242Z,999.44
2018-12-21T07:06:55.218Z,999.38
2018-12-21T07:07:55.195Z,999.40
2018-12-21T07:08:55.169Z,999.41
2018-12-21T07:09:55.146Z,999.37
2018-12-21T07:10:55.123Z,999.36
2018-12-21T07:11:55.098Z,999.31
2018-12-21T07:12:55.076Z,999.33
2018-12-21T07:13:55.049Z,999.29
2018-12-21T07:14:55.027Z,999.27
2018-12-21T07:15:55.002Z,999.23
2018-12-21T07:16:54.976Z,999.21
2018-12-21T07:17:54.952Z,999.19
2018-12-21T07:18:54.929Z,999.19
2018-12-21T07:19:54.905Z,999.14
2018-12-21T07:20:54.882Z,999.13
2018-12-21T07:21:54.856Z,999.13
2018-12-21T07:22:54.831Z,999.09
2018-12-21T07:23:54.808Z,999.11
2018-12-21T07:24:54.782Z,999.08
2018-12-21T07:25:54.759Z,999.09
2018-12-21T07:26:54.738Z,999.03
2018-12-21T07:27:54.710Z,999.01
2018-12-21T07:28:54.687Z,998.99
2018-12-21T07:29:54.661Z,998.94
2018-12-21T07:30:54.641Z,998.92
2018-12-21T07:31:54.613Z,998.91
2018-12-21T07:32:54.590Z,998.89
2018-12-21T07:33:54.565Z,998.89
2018-12-21T07:34:54.540Z,998.88
2018-12-21T07:35:54.517Z,998.83
2018-12-21T07:36:54.492Z,998.73
2018-12-21T07:37:54.468Z,998.79
2018-12-21T07:38:54.444Z,998.63
2018-12-21T07:39:54.421Z,998.55
2018-12-21T07:40:54.394Z,998.57
2018-12-21T07:41:54.372Z,998.61
2018-12-21T07:42:54.348Z,998.59
2018-12-21T07:43:54.323Z,998.59
2018-12-21T07:44:54.300Z,998.61
2018-12-21T07:45:54.276Z,998.60
2018-12-21T07:46:54.251Z,998.56
2018-12-21T07:47:54.227Z,998.56
2018-12-21T07:48:54.202Z,998.58
2018-12-21T07:49:54.177Z,998.59
2018-12-21T07:50:54.154Z,998.61
2018-12-21T07:51:54.130Z,998.60
2018-12-21T07:52:54.106Z,998.55
2018-12-21T07:53:54.080Z,998.50
2018-12-21T07:54:54.056Z,998.49
2018-12-21T07:55:54.033Z,998.48
2018-12-21T07:56:54.007Z,998.49
2018-12-21T07:57:53.984Z,998.50
2018-12-21T07:58:57.349Z,998.44
2018-12-21T07:59:53.936Z,998.40
2018-12-21T08:00:53.915Z,998.41
2018-12-21T08:01:53.889Z,998.43
2018-12-21T08:02:53.863Z,998.43
2018-12-21T08:03:53.839Z,998.44
2018-12-21T08:04:53.814Z,998.39
2018-12-21T08:05:53.790Z,998.43
2018-12-21T08:06:53.767Z,998.32
2018-12-21T08:07:53.742Z,998.34
2018-12-21T08:08:53.718Z,998.28
2018-12-21T08:09:53.694Z,998.28
2018-12-21T08:10:53.669Z,998.23
2018-12-21T08:11:53.646Z,998.27
2018-12-21T08:12:53.620Z,998.30
2018-12-21T08:13:53.597Z,998.25
2018-12-21T08:14:53.572Z,998.19
2018-12-21T08:15:53.549Z,998.20
2018-12-21T08:16:53.525Z,998.24
2018-12-21T08:17:53.501Z,998.20
2018-12-21T08:18:53.477Z,998.22
2018-12-21T08:19:53.456Z,998.20
2018-12-21T08:20:53.427Z,998.21
2018-12-21T08:21:53.405Z,998.21
2018-12-21T08:22:53.380Z,998.19
2018-12-21T08:23:53.357Z,998.19
2018-12-21T08:24:53.331Z,998.20
2018-12-21T08:25:53.307Z,998.21
2018-12-21T08:26:53.284Z,998.14
2018-12-21T08:27:53.264Z,998.16
2018-12-21T08:28:53.236Z,998.16
2018-12-21T08:29:53.211Z,998.13
2018-12-21T08:30:53.188Z,998.13
2018-12-21T08:31:53.164Z,998.14
2018-12-21T08:32:53.193Z,998.06
2018-12-21T08:33:53.117Z,998.07
2018-12-21T08:34:53.091Z,997.98
2018-12-21T08:35:53.068Z,998.02
2018-12-21T08:36:53.043Z,997.96
2018-12-21T08:37:53.020Z,998.01
2018-12-21T08:38:52.996Z,997.95
2018-12-21T08:39:52.985Z,997.96
2018-12-21T08:40:52.948Z,997.90
2018-12-21T08:41:52.923Z,997.96
2018-12-21T08:42:52.901Z,997.88
2018-12-21T08:43:52.883Z,997.83
2018-12-21T08:44:52.852Z,997.86
2018-12-21T08:45:52.828Z,997.82
2018-12-21T08:46:52.804Z,997.80
2018-12-21T08:47:52.780Z,997.78
2018-12-21T08:48:52.966Z,997.74
2018-12-21T08:49:52.733Z,997.76
2018-12-21T08:50:52.710Z,997.72
2018-12-21T08:51:52.686Z,997.71
2018-12-21T08:52:52.662Z,997.68
2018-12-21T08:53:52.750Z,997.63
2018-12-21T08:54:52.614Z,997.64
2018-12-21T08:55:52.594Z,997.57
2018-12-21T08:56:52.567Z,997.53
2018-12-21T08:57:52.543Z,997.50
2018-12-21T08:58:52.519Z,997.49
2018-12-21T08:59:52.496Z,997.48
2018-12-21T09:00:52.470Z,997.47
2018-12-21T09:01:52.448Z,997.53
2018-12-21T09:02:52.428Z,997.42
2018-12-21T09:03:52.400Z,997.45
2018-12-21T09:04:52.381Z,997.46
2018-12-21T09:05:52.353Z,997.49
2018-12-21T09:06:52.329Z,997.44
2018-12-21T09:07:52.307Z,997.49
2018-12-21T09:08:52.282Z,997.47
2018-12-21T09:09:52.260Z,997.43
2018-12-21T09:10:52.234Z,997.32
2018-12-21T09:11:52.211Z,997.35
2018-12-21T09:12:52.187Z,997.28
2018-12-21T09:13:52.165Z,997.28
2018-12-21T09:14:52.142Z,997.27
2018-12-21T09:15:52.117Z,997.26
2018-12-21T09:16:52.092Z,997.31
2018-12-21T09:17:52.069Z,997.26
2018-12-21T09:18:52.045Z,997.21
2018-12-21T09:19:52.021Z,997.22
2018-12-21T09:20:52.001Z,997.20
2018-12-21T09:21:51.975Z,997.19
2018-12-21T09:22:51.959Z,997.20
2018-12-21T09:23:51.927Z,997.24
2018-12-21T09:24:51.904Z,997.13
2018-12-21T09:25:51.880Z,997.14
2018-12-21T09:26:51.857Z,997.06
2018-12-21T09:27:51.834Z,997.06
2018-12-21T09:28:51.810Z,997.07
2018-12-21T09:29:51.785Z,996.99
2018-12-21T09:30:51.762Z,996.99
2018-12-21T09:31:51.743Z,996.98
2018-12-21T09:32:51.716Z,996.95
2018-12-21T09:33:51.691Z,996.93
2018-12-21T09:34:51.667Z,996.90
2018-12-21T09:35:51.742Z,996.88
2018-12-21T09:36:51.619Z,996.82
2018-12-21T09:37:51.596Z,996.79
2018-12-21T09:38:51.574Z,996.78
2018-12-21T09:39:51.550Z,996.79
2018-12-21T09:40:51.540Z,996.74
2018-12-21T09:41:51.503Z,996.77
2018-12-21T09:42:53.417Z,996.72
2018-12-21T09:43:51.461Z,996.67
2018-12-21T09:44:52.668Z,996.64
2018-12-21T09:45:51.407Z,996.56
2018-12-21T09:46:51.384Z,996.55
2018-12-21T09:47:51.361Z,996.54
2018-12-21T09:48:51.338Z,996.45
2018-12-21T09:49:51.313Z,996.46
2018-12-21T09:50:51.292Z,996.39
2018-12-21T09:51:51.266Z,996.33
2018-12-21T09:52:51.242Z,996.30
2018-12-21T09:53:51.226Z,996.31
2018-12-21T09:54:51.193Z,996.24
2018-12-21T09:55:51.171Z,996.27
2018-12-21T09:56:51.147Z,996.22
2018-12-21T09:57:51.126Z,996.22
2018-12-21T09:58:51.099Z,996.20
2018-12-21T09:59:51.075Z,996.13
2018-12-21T10:00:51.053Z,996.16
2018-12-21T10:01:51.028Z,996.07
2018-12-21T10:02:51.007Z,996.07
2018-12-21T10:03:50.980Z,996.04
2018-12-21T10:04:50.955Z,995.96
2018-12-21T10:05:50.932Z,995.91
2018-12-21T10:06:50.911Z,995.93
2018-12-21T10:07:50.886Z,995.87
2018-12-21T10:08:50.861Z,995.79
2018-12-21T10:09:50.838Z,995.81
2018-12-21T10:10:50.815Z,995.72
2018-12-21T10:11:50.791Z,995.70
2018-12-21T10:12:53.498Z,995.70
2018-12-21T10:13:50.747Z,995.66
2018-12-21T10:14:50.721Z,995.69
2018-12-21T10:15:50.697Z,995.60
2018-12-21T10:16:50.675Z,995.60
2018-12-21T10:17:50.650Z,995.56
2018-12-21T10:18:50.627Z,995.58
2018-12-21T10:19:50.603Z,995.56
2018-12-21T10:20:50.578Z,995.52
2018-12-21T10:21:50.556Z,995.49
2018-12-21T10:22:50.533Z,995.41
2018-12-21T10:23:50.508Z,995.38
2018-12-21T10:24:50.484Z,995.38
2018-12-21T10:25:50.460Z,995.36
2018-12-21T10:26:50.436Z,995.32
2018-12-21T10:27:50.413Z,995.38
2018-12-21T10:28:50.391Z,995.25
2018-12-21T10:29:50.365Z,995.24
2018-12-21T10:30:50.341Z,995.18
2018-12-21T10:31:50.319Z,995.13
2018-12-21T10:32:50.293Z,995.14
2018-12-21T10:33:50.270Z,995.12
2018-12-21T10:34:50.359Z,995.07
2018-12-21T10:35:50.225Z,995.06
2018-12-21T10:36:50.201Z,995.02
2018-12-21T10:37:50.176Z,995.01
2018-12-21T10:38:50.153Z,994.92
2018-12-21T10:39:50.128Z,994.98
2018-12-21T10:40:50.104Z,994.95
2018-12-21T10:41:50.080Z,994.87
2018-12-21T10:42:50.073Z,994.85
2018-12-21T10:43:50.034Z,994.84
2018-12-21T10:44:50.011Z,994.79
2018-12-21T10:45:49.986Z,994.77
2018-12-21T10:46:49.964Z,994.76
2018-12-21T10:47:49.940Z,994.74
2018-12-21T10:48:49.918Z,994.71
2018-12-21T10:49:49.892Z,994.63
2018-12-21T10:50:49.870Z,994.67
2018-12-21T10:51:49.845Z,994.59
2018-12-21T10:52:49.823Z,994.59
2018-12-21T10:53:49.798Z,994.55
2018-12-21T10:54:49.774Z,994.58
2018-12-21T10:55:49.751Z,994.56
2018-12-21T10:56:49.726Z,994.51
2018-12-21T10:57:49.704Z,994.46
2018-12-21T10:58:50.005Z,994.42
2018-12-21T10:59:49.657Z,994.42
2018-12-21T11:00:49.633Z,994.36
2018-12-21T11:01:49.609Z,994.42
2018-12-21T11:02:49.586Z,994.37
2018-12-21T11:03:49.562Z,994.29
2018-12-21T11:04:49.538Z,994.29
2018-12-21T11:05:49.515Z,994.28
2018-12-21T11:06:49.493Z,994.22
2018-12-21T11:07:49.468Z,994.16
2018-12-21T11:08:49.443Z,994.14
2018-12-21T11:09:49.424Z,994.14
2018-12-21T11:10:49.398Z,994.05
2018-12-21T11:11:49.373Z,994.01
2018-12-21T11:12:49.348Z,993.98
2018-12-21T11:13:49.324Z,993.96
2018-12-21T11:14:49.301Z,993.92
2018-12-21T11:15:49.277Z,993.90
2018-12-21T11:16:49.254Z,993.78
2018-12-21T11:17:49.230Z,993.80
2018-12-21T11:18:49.207Z,993.73
2018-12-21T11:19:49.184Z,993.71
2018-12-21T11:20:49.158Z,993.64
2018-12-21T11:21:49.135Z,993.65
2018-12-21T11:22:49.112Z,993.59
2018-12-21T11:23:49.087Z,993.65
2018-12-21T11:24:49.063Z,993.59
2018-12-21T11:25:49.040Z,993.58
2018-12-21T11:26:49.017Z,993.54
2018-12-21T11:27:48.994Z,993.54
2018-12-21T11:28:48.968Z,993.50
2018-12-21T11:29:49.655Z,993.39
2018-12-21T11:30:48.922Z,993.41
2018-12-21T11:31:48.898Z,993.33
2018-12-21T11:32:48.873Z,993.26
2018-12-21T11:33:48.850Z,993.28
2018-12-21T11:34:48.827Z,993.20
2018-12-21T11:35:48.804Z,993.16
2018-12-21T11:36:48.780Z,993.14
2018-12-21T11:37:48.758Z,993.09
2018-12-21T11:38:48.731Z,993.09
2018-12-21T11:39:48.709Z,993.06
2018-12-21T11:40:48.684Z,993.05
2018-12-21T11:41:48.661Z,993.00
2018-12-21T11:42:48.637Z,992.99
2018-12-21T11:43:48.614Z,992.94
2018-12-21T11:44:48.589Z,992.90
2018-12-21T11:45:48.566Z,992.91
2018-12-21T11:46:48.543Z,992.93
2018-12-21T11:47:48.519Z,992.91
2018-12-21T11:48:48.495Z,992.89
2018-12-21T11:49:48.470Z,992.91
2018-12-21T11:50:48.448Z,992.78
2018-12-21T11:51:48.425Z,992.79
2018-12-21T11:52:48.399Z,992.75
2018-12-21T11:53:48.376Z,992.68
2018-12-21T11:54:48.352Z,992.69
2018-12-21T11:55:48.328Z,992.62
2018-12-21T11:56:48.311Z,992.61
2018-12-21T11:57:48.281Z,992.51
2018-12-21T11:58:48.258Z,992.50
2018-12-21T11:59:48.233Z,992.39
2018-12-21T12:00:48.210Z,992.39
2018-12-21T12:01:48.186Z,992.43
2018-12-21T12:02:48.163Z,992.40
2018-12-21T12:03:48.138Z,992.35
2018-12-21T12:04:48.114Z,992.40
2018-12-21T12:05:48.092Z,992.36
2018-12-21T12:06:48.069Z,992.26
2018-12-21T12:07:48.044Z,992.21
2018-12-21T12:08:48.020Z,992.18
2018-12-21T12:09:47.996Z,992.10
2018-12-21T12:10:47.972Z,992.09
2018-12-21T12:11:47.949Z,992.06
2018-12-21T12:12:47.924Z,992.05
2018-12-21T12:13:47.900Z,991.99
2018-12-21T12:14:47.876Z,991.99
2018-12-21T12:15:47.855Z,991.90
2018-12-21T12:16:47.830Z,991.92
2018-12-21T12:17:47.805Z,991.91